createdAt,value
2022-10-06T00:01:06.354Z,10.20
2022-10-06T00:06:11.842Z,10.73
2022-10-06T00:11:18.012Z,10.93
2022-10-06T00:16:25.710Z,8.95
2022-10-06T00:21:30.841Z,10.52
2022-10-06T00:26:36.294Z,11.00
2022-10-06T00:31:44.415Z,11.77
2022-10-06T00:36:49.516Z,11.38
2022-10-06T00:41:54.527Z,10.02
2022-10-06T00:47:03.258Z,12.93
2022-10-06T00:52:12.291Z,12.52
2022-10-06T00:57:17.386Z,10.25
2022-10-06T01:02:28.459Z,10.82
2022-10-06T01:07:33.854Z,12.85
2022-10-06T01:12:39.133Z,12.07
2022-10-06T01:17:51.630Z,11.88
2022-10-06T01:23:04.054Z,8.48
2022-10-06T01:28:10.468Z,9.88
2022-10-06T01:33:18.593Z,9.77
2022-10-06T01:38:26.781Z,10.50
2022-10-06T01:43:32.198Z,11.27
2022-10-06T01:48:39.039Z,11.98
2022-10-06T01:53:46.774Z,9.75
2022-10-06T01:58:52.064Z,15.77
2022-10-06T02:03:57.205Z,11.05
2022-10-06T02:09:05.026Z,16.25
2022-10-06T02:14:10.218Z,13.38
2022-10-06T02:19:15.298Z,13.80
2022-10-06T02:24:23.052Z,12.63
2022-10-06T02:29:28.141Z,11.80
2022-10-06T02:34:33.310Z,13.77
2022-10-06T02:39:41.063Z,12.95
2022-10-06T02:44:46.186Z,16.20
2022-10-06T02:49:51.358Z,15.52
2022-10-06T02:54:59.094Z,11.85
2022-10-06T03:00:04.397Z,13.05
2022-10-06T03:05:10.198Z,10.27
2022-10-06T03:10:17.935Z,11.15
2022-10-06T03:15:23.002Z,13.57
2022-10-06T03:20:28.102Z,9.48
2022-10-06T03:25:35.766Z,11.88
2022-10-06T03:30:40.922Z,12.32
2022-10-06T03:35:46.242Z,11.68
2022-10-06T03:40:54.171Z,11.98
2022-10-06T03:46:01.075Z,13.43
2022-10-06T03:51:08.642Z,9.95
2022-10-06T03:56:18.408Z,15.25
2022-10-06T04:01:26.685Z,10.82
2022-10-06T04:06:33.810Z,11.63
2022-10-06T04:11:43.152Z,12.02
2022-10-06T04:16:49.310Z,12.97
2022-10-06T04:21:54.446Z,12.23
2022-10-06T04:27:22.990Z,47.75
2022-10-06T04:32:29.601Z,10.98
2022-10-06T04:37:36.781Z,18.60
2022-10-06T04:42:45.408Z,14.05
2022-10-06T04:47:52.277Z,12.32
2022-10-06T04:52:57.397Z,11.75
2022-10-06T04:58:05.086Z,13.95
2022-10-06T05:03:10.369Z,12.95
2022-10-06T05:08:15.475Z,13.93
2022-10-06T05:13:23.253Z,44.78
2022-10-06T05:18:29.273Z,19.58
2022-10-06T05:23:36.115Z,18.58
2022-10-06T05:28:44.275Z,16.90
2022-10-06T05:33:49.707Z,13.68
2022-10-06T05:38:55.213Z,15.27
2022-10-06T05:44:04.300Z,13.63
2022-10-06T05:49:13.058Z,13.75
2022-10-06T05:54:18.174Z,14.65
2022-10-06T05:59:25.933Z,10.30
2022-10-06T06:04:31.139Z,9.65
2022-10-06T06:09:36.340Z,13.90
2022-10-06T06:14:56.383Z,9.85
2022-10-06T06:20:01.484Z,9.75
2022-10-06T06:25:06.986Z,8.40
2022-10-06T06:30:15.701Z,12.13
2022-10-06T06:35:20.881Z,9.55
2022-10-06T06:40:26.007Z,8.75
2022-10-06T06:45:33.853Z,10.45
2022-10-06T06:50:38.928Z,8.60
2022-10-06T06:55:52.832Z,7.20
2022-10-06T07:01:07.718Z,9.32
2022-10-06T07:06:14.436Z,7.63
2022-10-06T07:11:21.281Z,6.55
2022-10-06T07:16:41.246Z,8.48
2022-10-06T07:21:58.948Z,7.45
2022-10-06T07:27:04.061Z,7.60
2022-10-06T07:32:11.895Z,6.90
2022-10-06T07:37:16.971Z,6.10
2022-10-06T07:42:22.089Z,8.63
2022-10-06T07:47:29.878Z,6.15
2022-10-06T07:52:37.239Z,5.57
2022-10-06T07:57:42.316Z,7.45
2022-10-06T08:02:50.192Z,7.95
2022-10-06T08:07:56.691Z,5.43
2022-10-06T08:13:01.892Z,11.85
2022-10-06T08:18:27.145Z,5.97
2022-10-06T08:23:35.431Z,4.32
2022-10-06T08:28:42.948Z,7.57
2022-10-06T08:33:51.408Z,4.28
2022-10-06T08:38:56.955Z,8.33
2022-10-06T08:44:05.279Z,5.15
2022-10-06T08:49:17.607Z,13.13
2022-10-06T08:54:30.085Z,5.78
2022-10-06T08:59:36.783Z,4.65
2022-10-06T09:04:51.420Z,4.88
2022-10-06T09:10:08.155Z,4.45
2022-10-06T09:15:23.740Z,4.60
2022-10-06T09:20:35.012Z,3.78
2022-10-06T09:25:41.287Z,4.28
2022-10-06T09:30:46.863Z,13.20
2022-10-06T09:36:12.603Z,4.18
2022-10-06T09:41:18.571Z,4.90
2022-10-06T09:46:25.010Z,3.03
2022-10-06T09:51:34.263Z,3.60
2022-10-06T09:56:43.994Z,9.77
2022-10-06T10:02:00.042Z,24.83
2022-10-06T10:07:28.404Z,3.85
2022-10-06T10:12:39.561Z,4.20
2022-10-06T10:17:49.933Z,3.20
2022-10-06T10:22:58.992Z,3.35
2022-10-06T10:28:16.357Z,2.63
2022-10-06T10:33:29.052Z,2.45
2022-10-06T10:38:41.383Z,3.28
2022-10-06T10:43:51.431Z,2.50
2022-10-06T10:49:02.062Z,2.38
2022-10-06T10:54:14.219Z,2.72
2022-10-06T10:59:22.591Z,2.50
2022-10-06T11:04:27.727Z,3.67
2022-10-06T11:09:42.715Z,3.20
2022-10-06T11:15:00.306Z,2.63
2022-10-06T11:20:13.963Z,2.22
2022-10-06T11:25:26.977Z,2.40
2022-10-06T11:30:37.038Z,2.40
2022-10-06T11:35:44.557Z,2.35
2022-10-06T11:41:09.896Z,3.72
2022-10-06T11:46:31.191Z,3.60
2022-10-06T11:51:37.403Z,2.83
2022-10-06T11:56:45.117Z,2.67
2022-10-06T12:01:54.794Z,2.83
2022-10-06T12:07:02.709Z,2.85
2022-10-06T12:12:43.459Z,3.10
2022-10-06T12:17:52.297Z,2.65
2022-10-06T12:23:02.963Z,1.98
2022-10-06T12:28:20.355Z,3.03
2022-10-06T12:33:38.562Z,2.85
2022-10-06T12:38:46.212Z,3.42
2022-10-06T12:43:58.947Z,5.95
2022-10-06T12:49:12.752Z,1.92
2022-10-06T12:54:21.217Z,3.22
2022-10-06T12:59:32.236Z,2.90
2022-10-06T13:04:40.305Z,2.13
2022-10-06T13:09:45.900Z,2.40
2022-10-06T13:15:12.621Z,2.58
2022-10-06T13:20:24.168Z,6.80
2022-10-06T13:25:34.149Z,2.55
2022-10-06T13:30:44.036Z,3.38
2022-10-06T13:35:53.037Z,10.23
2022-10-06T13:41:11.863Z,4.40
2022-10-06T13:46:22.125Z,4.25
2022-10-06T13:51:33.192Z,20.83
2022-10-06T13:56:40.672Z,9.00
2022-10-06T14:01:48.760Z,4.38
2022-10-06T14:06:55.880Z,2.97
2022-10-06T14:12:06.414Z,3.20
2022-10-06T14:17:25.039Z,4.35
2022-10-06T14:22:35.685Z,4.55
2022-10-06T14:27:41.294Z,3.05
2022-10-06T14:32:49.036Z,3.95
2022-10-06T14:37:54.113Z,4.15
2022-10-06T14:42:59.164Z,3.53
2022-10-06T14:48:07.295Z,2.90
2022-10-06T14:53:14.774Z,4.00
2022-10-06T14:58:19.835Z,4.28
2022-10-06T15:03:27.694Z,3.58
2022-10-06T15:08:33.553Z,5.78
2022-10-06T15:13:40.496Z,4.75
2022-10-06T15:18:48.315Z,3.20
2022-10-06T15:23:58.424Z,5.50
2022-10-06T15:29:03.555Z,6.60
2022-10-06T15:34:12.390Z,9.63
2022-10-06T15:39:19.069Z,6.93
2022-10-06T15:44:24.509Z,5.22
2022-10-06T15:49:33.242Z,9.32
2022-10-06T15:54:40.436Z,11.77
2022-10-06T15:59:45.570Z,46.38
2022-10-06T16:05:20.328Z,26.35
2022-10-06T16:10:25.369Z,55.13
2022-10-06T16:15:30.672Z,34.03
2022-10-06T16:20:41.087Z,16.10
2022-10-06T16:25:46.159Z,13.07
2022-10-06T16:30:57.567Z,9.13
2022-10-06T16:36:05.581Z,15.30
2022-10-06T16:41:10.794Z,27.40
2022-10-06T16:46:18.006Z,25.10
2022-10-06T16:51:26.687Z,16.73
2022-10-06T16:56:33.561Z,23.60
2022-10-06T17:01:40.080Z,26.30
2022-10-06T17:06:49.056Z,52.20
2022-10-06T17:11:56.006Z,86.80
2022-10-06T17:17:01.944Z,108.15
2022-10-06T17:22:09.667Z,67.03
2022-10-06T17:27:14.792Z,32.58
2022-10-06T17:32:19.999Z,21.73
2022-10-06T17:37:28.046Z,17.90
2022-10-06T17:42:33.178Z,10.20
2022-10-06T17:47:38.200Z,9.82
2022-10-06T17:52:45.920Z,17.77
2022-10-06T17:57:51.074Z,16.45
2022-10-06T18:03:00.488Z,12.05
2022-10-06T18:08:10.226Z,9.80
2022-10-06T18:13:15.432Z,9.93
2022-10-06T18:18:25.312Z,7.53
2022-10-06T18:28:37.797Z,12.68
2022-10-06T18:36:10.429Z,20.92
2022-10-06T18:39:10.994Z,9.90
2022-10-06T18:44:36.198Z,14.00
2022-10-06T18:49:41.319Z,12.30
2022-10-06T18:54:49.318Z,15.27
2022-10-06T18:59:54.473Z,14.93
2022-10-06T19:04:59.514Z,10.63
2022-10-06T19:10:07.850Z,9.73
2022-10-06T19:15:16.534Z,17.55
2022-10-06T19:20:25.438Z,16.02
2022-10-06T19:25:33.527Z,10.88
2022-10-06T19:30:38.637Z,9.75
2022-10-06T19:35:43.966Z,11.07
2022-10-06T19:40:52.062Z,12.20
2022-10-06T19:46:00.331Z,15.40
2022-10-06T19:51:14.618Z,25.88
2022-10-06T19:56:23.385Z,24.33
2022-10-06T20:01:28.986Z,19.00
2022-10-06T20:06:35.307Z,27.45
2022-10-06T20:11:44.966Z,22.92
2022-10-06T20:16:50.836Z,20.23
2022-10-06T20:21:56.395Z,18.02
2022-10-06T20:27:04.031Z,15.57
2022-10-06T20:32:09.181Z,15.77
2022-10-06T20:37:14.157Z,13.05
2022-10-06T20:42:22.809Z,14.25
2022-10-06T20:47:28.059Z,13.20
2022-10-06T20:52:33.033Z,15.65
2022-10-06T20:57:40.636Z,14.77
2022-10-06T21:02:45.721Z,14.68
2022-10-06T21:07:50.801Z,15.80
2022-10-06T21:12:58.448Z,18.70
2022-10-06T21:18:05.776Z,17.48
2022-10-06T21:23:10.992Z,13.93
2022-10-06T21:28:18.689Z,13.57
2022-10-06T21:33:26.768Z,13.70
2022-10-06T21:38:32.569Z,13.02
2022-10-06T21:43:40.285Z,11.95
2022-10-06T21:48:45.273Z,13.82
2022-10-06T21:53:50.351Z,13.55
2022-10-06T21:58:58.953Z,13.45
2022-10-06T22:04:04.380Z,13.80
2022-10-06T22:09:11.368Z,12.80
2022-10-06T22:14:20.168Z,12.35
2022-10-06T22:19:25.332Z,19.92
2022-10-06T22:24:30.432Z,26.67
2022-10-06T22:29:38.473Z,15.20
2022-10-06T22:34:43.849Z,26.02
2022-10-06T22:39:51.873Z,21.73
2022-10-06T22:44:59.508Z,14.00
2022-10-06T22:50:04.495Z,18.45
2022-10-06T22:55:10.871Z,16.95
2022-10-06T23:00:19.109Z,33.55
2022-10-06T23:05:24.240Z,14.90
2022-10-06T23:10:30.514Z,14.73
2022-10-06T23:15:38.132Z,19.00
2022-10-06T23:20:43.283Z,13.70
2022-10-06T23:25:48.319Z,14.98
2022-10-06T23:30:55.872Z,19.95
2022-10-06T23:36:01.623Z,13.60
2022-10-06T23:41:07.577Z,13.27
2022-10-06T23:46:16.331Z,13.13
2022-10-06T23:51:21.349Z,13.38
2022-10-06T23:56:26.345Z,13.50
